Time;durP1;ratioP1;P1;durP2;ratioP2;P2;SDS_P1;SDS_P2;PMS_P1;PMS_P2;Temp;Humidity;BMP_temperature;BMP_pressure;BME280_temperature;BME280_humidity;BME280_pressure;Samples;Min_cycle;Max_cycle;Signal;HPM_P1;HPM_P2
2022/01/24 00:01:17;;;;;;;12.20;7.28;;;;;;;-4.96;69.44;95403.38;5132169;27;20075;-73
2022/01/24 00:03:42;;;;;;;13.40;6.75;;;;;;;-5.06;69.34;95390.00;5120502;27;20027;-73
2022/01/24 00:06:10;;;;;;;12.43;6.80;;;;;;;-5.00;68.88;95395.00;5142991;27;20035;-73
2022/01/24 00:08:36;;;;;;;10.70;7.13;;;;;;;-5.00;69.45;95412.72;5130079;27;20051;-73
2022/01/24 00:11:07;;;;;;;12.32;7.03;;;;;;;-5.06;69.54;95405.22;5093744;28;20062;-73
2022/01/24 00:14:21;;;;;;;11.80;6.60;;;;;;;-4.92;68.75;95417.72;5132599;27;20027;-73
2022/01/24 00:16:56;;;;;;;9.90;6.32;;;;;;;-4.99;69.16;95404.25;5124765;27;20554;-74
2022/01/24 00:27:13;;;;;;;13.10;7.18;;;;;;;-5.06;69.78;95420.41;5129271;27;20130;-73
2022/01/24 00:29:39;;;;;;;10.73;6.70;;;;;;;-5.03;69.78;95415.31;5134016;27;20035;-73
2022/01/24 00:32:05;;;;;;;11.68;6.82;;;;;;;-5.01;69.65;95428.81;5117074;27;20031;-74
2022/01/24 00:34:30;;;;;;;12.50;7.35;;;;;;;-4.98;69.94;95430.47;5117025;27;20083;-73
2022/01/24 00:36:56;;;;;;;11.30;7.40;;;;;;;-5.06;69.86;95427.19;5134004;27;20039;-73
2022/01/24 00:39:22;;;;;;;12.52;7.20;;;;;;;-5.03;69.77;95432.22;5116931;27;20019;-73
2022/01/24 00:47:03;;;;;;;12.75;6.82;;;;;;;-4.96;68.71;95427.06;5084158;28;20046;-74
2022/01/24 00:54:52;;;;;;;10.95;6.38;;;;;;;-5.04;69.31;95428.84;5134371;27;20527;-74
2022/01/24 00:57:17;;;;;;;16.75;11.00;;;;;;;-5.03;68.58;95438.13;5133581;27;20120;-73
2022/01/24 00:59:43;;;;;;;16.85;9.38;;;;;;;-5.10;69.23;95433.13;5116379;27;20028;-73
2022/01/24 01:02:08;;;;;;;12.80;7.53;;;;;;;-5.12;68.99;95427.28;5134787;27;20450;-73
2022/01/24 01:07:11;;;;;;;13.23;7.07;;;;;;;-5.11;68.66;95437.38;5113245;28;20039;-73
2022/01/24 01:20:45;;;;;;;14.18;7.40;;;;;;;-5.04;68.52;95421.25;5098522;28;20046;-73
2022/01/24 01:23:10;;;;;;;13.50;7.53;;;;;;;-5.04;69.18;95416.19;5129743;27;20083;-73
2022/01/24 01:25:38;;;;;;;9.75;6.93;;;;;;;-5.01;69.99;95426.28;5132884;27;20031;-73
2022/01/24 01:28:04;;;;;;;15.30;7.50;;;;;;;-5.05;68.63;95414.47;5132948;27;20027;-73
2022/01/24 01:30:38;;;;;;;16.55;7.95;;;;;;;-5.01;69.03;95411.06;5098731;27;20080;-73
2022/01/24 01:33:13;;;;;;;11.48;7.50;;;;;;;-5.04;69.47;95420.38;5121755;27;20027;-74
2022/01/24 01:36:44;;;;;;;13.10;7.65;;;;;;;-5.12;69.48;95417.13;5112379;28;20040;-73
2022/01/24 01:38:47;;;;;;;12.38;7.50;;;;;;;-5.12;68.86;95420.50;5084420;28;20139;-74
2022/01/24 01:52:26;;;;;;;9.73;6.82;;;;;;;-5.45;68.54;95411.59;5130718;27;20515;-74
2022/01/24 01:55:07;;;;;;;11.93;6.80;;;;;;;-5.44;67.40;95420.88;5132636;27;20031;-73
2022/01/24 01:57:32;;;;;;;9.93;6.47;;;;;;;-5.52;67.48;95420.94;5117739;27;20074;-74
2022/01/24 01:59:58;;;;;;;10.30;6.50;;;;;;;-5.58;67.32;95426.09;5132337;27;20035;-73
2022/01/24 02:02:23;;;;;;;9.60;6.35;;;;;;;-5.65;67.18;95424.50;5115587;27;20032;-73
2022/01/24 02:04:48;;;;;;;14.68;7.38;;;;;;;-5.74;67.59;95420.34;5111659;28;20031;-73
2022/01/24 02:07:15;;;;;;;10.15;6.28;;;;;;;-5.90;67.82;95411.22;5111450;28;20054;-74
2022/01/24 02:09:42;;;;;;;11.35;6.47;;;;;;;-5.92;68.22;95420.53;5094691;28;20037;-73
2022/01/24 02:12:09;;;;;;;11.02;7.00;;;;;;;-6.03;68.67;95423.19;5094858;28;20027;-73
2022/01/24 02:14:38;;;;;;;9.85;6.63;;;;;;;-5.93;69.15;95426.47;5094605;28;20477;-73
2022/01/24 02:17:09;;;;;;;9.30;5.90;;;;;;;-6.00;69.38;95418.09;5113534;27;20031;-73
2022/01/24 02:24:59;;;;;;;10.65;6.68;;;;;;;-6.05;68.09;95435.00;5112651;27;20035;-73
2022/01/24 02:27:27;;;;;;;9.38;6.88;;;;;;;-6.11;67.74;95446.00;5112787;28;20031;-74
2022/01/24 02:30:09;;;;;;;10.57;6.90;;;;;;;-6.07;68.50;95444.31;5094710;28;20417;-73
2022/01/24 02:32:39;;;;;;;10.32;6.32;;;;;;;-6.09;68.92;95440.94;5112405;28;20396;-74
2022/01/24 02:35:05;;;;;;;10.93;6.47;;;;;;;-6.04;69.04;95443.41;5110446;28;20517;-73
2022/01/24 02:37:30;;;;;;;11.90;6.85;;;;;;;-5.98;69.23;95440.88;5112140;28;20401;-74
2022/01/24 02:40:01;;;;;;;10.57;7.22;;;;;;;-5.94;69.27;95439.97;5128435;27;20027;-74
2022/01/24 02:53:08;;;;;;;11.30;6.93;;;;;;;-5.84;68.98;95447.44;5094116;28;20027;-73
2022/01/24 02:55:35;;;;;;;11.38;7.00;;;;;;;-5.70;68.43;95447.31;5111314;27;20031;-74
2022/01/24 02:58:01;;;;;;;10.88;6.72;;;;;;;-5.75;69.24;95451.56;5093949;28;20063;-73
2022/01/24 03:00:26;;;;;;;13.57;6.95;;;;;;;-5.76;68.99;95459.19;5111870;28;20027;-74
2022/01/24 03:02:52;;;;;;;11.05;7.65;;;;;;;-5.72;68.84;95460.81;5111924;28;20032;-73
2022/01/24 03:05:17;;;;;;;9.25;6.70;;;;;;;-5.76;69.21;95449.91;5119475;27;20484;-73
2022/01/24 03:07:43;;;;;;;12.75;7.57;;;;;;;-5.70;68.97;95459.13;5131001;27;20150;-74
2022/01/24 03:10:14;;;;;;;11.75;6.82;;;;;;;-5.72;69.42;95460.81;5131059;27;20027;-73
2022/01/24 03:12:44;;;;;;;11.18;7.00;;;;;;;-5.73;69.19;95469.28;5109754;27;20031;-73
2022/01/24 03:15:09;;;;;;;11.73;6.75;;;;;;;-5.75;68.71;95465.91;5109492;28;20031;-74
2022/01/24 03:17:35;;;;;;;8.60;5.68;;;;;;;-5.75;68.79;95465.91;5110394;28;20046;-74
2022/01/24 03:20:00;;;;;;;9.50;6.10;;;;;;;-5.77;68.35;95475.22;5128711;27;20070;-73
2022/01/24 03:22:26;;;;;;;12.27;7.40;;;;;;;-5.72;68.55;95481.91;5130805;27;20098;-74
2022/01/24 03:24:51;;;;;;;9.32;6.05;;;;;;;-5.76;68.40;95481.97;5131929;27;20035;-73
2022/01/24 03:27:17;;;;;;;10.15;6.22;;;;;;;-5.86;69.01;95474.44;5111553;27;20034;-74
2022/01/24 03:29:42;;;;;;;10.60;6.13;;;;;;;-5.85;69.38;95470.22;5110144;28;20421;-73
2022/01/24 03:32:08;;;;;;;10.10;6.55;;;;;;;-5.75;69.10;95476.03;5110263;28;20526;-73
2022/01/24 03:34:33;;;;;;;9.55;6.32;;;;;;;-5.73;68.63;95477.72;5093332;28;20472;-73
2022/01/24 03:36:58;;;;;;;9.60;6.15;;;;;;;-5.74;68.85;95486.16;5110180;28;20039;-73
2022/01/24 03:39:24;;;;;;;10.73;6.70;;;;;;;-5.75;69.64;95492.06;5076389;28;20036;-74
2022/01/24 03:41:49;;;;;;;8.32;5.97;;;;;;;-5.71;69.73;95491.19;5095661;28;20099;-73
2022/01/24 03:44:17;;;;;;;8.07;5.60;;;;;;;-5.64;68.92;95502.09;5130527;28;20030;-74
2022/01/24 03:52:07;;;;;;;10.25;6.53;;;;;;;-5.67;70.74;95514.78;5137637;27;20149;-73
2022/01/24 03:54:33;;;;;;;10.52;6.68;;;;;;;-5.53;69.93;95520.56;5120305;27;20093;-73
2022/01/24 03:56:58;;;;;;;9.70;6.43;;;;;;;-5.60;69.81;95524.00;5138610;27;20106;-74
2022/01/24 03:59:24;;;;;;;12.40;7.65;;;;;;;-5.64;69.76;95519.81;5138433;27;20034;-74
2022/01/24 04:01:49;;;;;;;11.55;6.85;;;;;;;-5.65;70.61;95529.13;5138527;27;20050;-73
2022/01/24 04:04:14;;;;;;;11.48;7.72;;;;;;;-5.58;70.59;95524.00;5119424;27;20023;-73
2022/01/24 04:06:40;;;;;;;12.43;8.25;;;;;;;-5.58;70.16;95524.81;5120027;27;20035;-74
2022/01/24 04:09:06;;;;;;;12.52;8.80;;;;;;;-5.55;70.20;95529.84;5137350;27;20031;-74
2022/01/24 04:11:36;;;;;;;15.88;10.25;;;;;;;-5.55;70.35;95534.91;5119878;27;20436;-74
2022/01/24 04:14:21;;;;;;;23.52;13.07;;;;;;;-5.48;70.29;95528.97;5118162;27;20035;-74
2022/01/24 04:16:53;;;;;;;35.85;17.17;;;;;;;-5.48;70.85;95536.56;5116851;28;20085;-73
2022/01/24 04:22:18;;;;;;;25.13;14.15;;;;;;;-5.46;70.47;95537.41;5105317;27;20047;-74
2022/01/24 04:24:44;;;;;;;21.00;13.18;;;;;;;-5.46;70.31;95534.00;5099577;28;20092;-72
2022/01/24 04:27:10;;;;;;;22.13;14.82;;;;;;;-5.47;70.38;95542.47;5099503;28;20106;-74
2022/01/24 04:29:36;;;;;;;24.48;14.93;;;;;;;-5.37;70.13;95548.28;5113985;27;20522;-74
2022/01/24 04:32:02;;;;;;;28.98;18.10;;;;;;;-5.30;69.98;95554.97;5102842;27;20118;-75
2022/01/24 04:34:27;;;;;;;30.48;19.52;;;;;;;-5.31;69.83;95553.28;5136838;27;20563;-73
2022/01/24 04:36:52;;;;;;;33.35;17.67;;;;;;;-5.29;69.45;95552.44;5119718;27;20030;-74
2022/01/24 04:39:18;;;;;;;31.65;16.02;;;;;;;-5.33;69.14;95557.53;5123232;27;20038;-74
2022/01/24 04:41:47;;;;;;;36.65;17.70;;;;;;;-5.37;70.08;95563.50;5116603;28;20024;-75
2022/01/24 04:54:44;;;;;;;27.45;13.85;;;;;;;-5.52;69.05;95560.22;5120209;27;20069;-74
2022/01/24 04:57:10;;;;;;;26.42;13.90;;;;;;;-5.53;68.46;95583.03;5135117;27;20174;-74
2022/01/24 04:59:36;;;;;;;23.13;13.07;;;;;;;-5.68;68.81;95574.72;5134951;27;20461;-74
2022/01/24 05:02:02;;;;;;;24.70;12.63;;;;;;;-5.71;69.02;95579.81;5133557;27;20123;-75
2022/01/24 05:04:27;;;;;;;20.00;12.05;;;;;;;-5.65;68.70;95589.88;5133314;27;20027;-75
2022/01/24 05:06:53;;;;;;;24.13;12.50;;;;;;;-5.84;68.54;95583.28;5134528;27;20027;-74
2022/01/24 05:09:20;;;;;;;25.30;13.95;;;;;;;-5.86;69.12;95600.16;5099181;27;20039;-74
2022/01/24 05:12:03;;;;;;;24.35;12.88;;;;;;;-5.95;69.18;95595.19;5131292;27;20027;-74
2022/01/24 05:25:24;;;;;;;18.33;11.50;;;;;;;-6.25;69.11;95621.50;5133482;27;20042;-75
2022/01/24 05:27:50;;;;;;;21.30;12.48;;;;;;;-6.38;68.90;95616.50;5098802;27;20428;-74
2022/01/24 05:30:16;;;;;;;22.83;12.90;;;;;;;-6.34;69.32;95635.03;5134189;27;20478;-74
2022/01/24 05:32:42;;;;;;;21.83;13.65;;;;;;;-6.40;69.27;95635.91;5132804;27;20027;-74
2022/01/24 05:35:07;;;;;;;26.13;13.18;;;;;;;-6.53;69.55;95622.44;5113736;27;20520;-74
2022/01/24 05:37:33;;;;;;;20.55;12.45;;;;;;;-6.41;69.60;95656.13;5115568;27;20180;-73
2022/01/24 05:39:58;;;;;;;20.73;12.88;;;;;;;-6.46;69.77;95652.75;5132751;27;20034;-74
2022/01/24 05:42:24;;;;;;;25.40;14.07;;;;;;;-6.52;70.01;95648.56;5130553;27;20027;-74
2022/01/24 05:44:49;;;;;;;23.80;13.52;;;;;;;-6.43;70.21;95657.84;5129542;27;20042;-72
2022/01/24 05:47:16;;;;;;;23.25;14.00;;;;;;;-6.42;70.22;95664.56;5132416;27;20032;-74
2022/01/24 05:49:41;;;;;;;25.60;13.38;;;;;;;-6.37;70.25;95671.28;5123808;27;20051;-74
2022/01/24 05:52:09;;;;;;;24.52;14.40;;;;;;;-6.36;70.56;95674.66;5104946;28;20562;-74
2022/01/24 05:54:43;;;;;;;22.00;12.90;;;;;;;-6.32;69.92;95679.69;5112713;27;20118;-71
2022/01/24 05:57:09;;;;;;;24.30;15.65;;;;;;;-6.33;69.84;95679.69;5132285;27;20031;-74
2022/01/24 05:59:35;;;;;;;25.95;15.93;;;;;;;-6.31;70.15;95686.44;5114616;27;20533;-74
2022/01/24 06:02:01;;;;;;;21.52;12.73;;;;;;;-6.24;70.58;95678.81;5121554;27;20038;-75
2022/01/24 06:04:26;;;;;;;22.63;11.65;;;;;;;-6.23;70.66;95681.34;5126668;27;20416;-74
2022/01/24 06:06:51;;;;;;;19.05;10.63;;;;;;;-6.16;70.66;95703.22;5096072;27;20516;-71
2022/01/24 06:09:17;;;;;;;19.80;11.55;;;;;;;-6.12;70.87;95707.44;5110455;27;20024;-72
2022/01/24 06:11:43;;;;;;;18.10;11.02;;;;;;;-6.04;70.81;95711.59;5108078;28;20051;-72
2022/01/24 06:14:09;;;;;;;19.17;11.13;;;;;;;-6.02;71.11;95717.50;5126566;27;20114;-71
2022/01/24 06:16:34;;;;;;;16.95;10.23;;;;;;;-6.02;70.67;95717.50;5131866;27;20027;-73
2022/01/24 06:19:00;;;;;;;18.50;10.57;;;;;;;-6.02;70.96;95715.81;5131705;27;20083;-71
2022/01/24 06:21:25;;;;;;;17.55;10.48;;;;;;;-5.96;70.83;95731.00;5092210;28;20054;-72
2022/01/24 06:23:51;;;;;;;22.27;11.55;;;;;;;-5.96;71.11;95725.94;5121590;27;20037;-72
2022/01/24 06:26:16;;;;;;;18.17;10.90;;;;;;;-5.92;70.87;95725.03;5132871;27;20083;-73
2022/01/24 06:28:41;;;;;;;19.45;11.25;;;;;;;-5.96;70.65;95725.94;5097842;27;20022;-74
2022/01/24 06:31:07;;;;;;;24.80;13.82;;;;;;;-6.06;71.12;95719.22;5123509;27;20035;-71
2022/01/24 06:33:32;;;;;;;30.80;15.80;;;;;;;-5.94;70.47;95724.22;5130651;27;20035;-72
2022/01/24 06:35:58;;;;;;;33.55;18.25;;;;;;;-5.86;70.08;95730.06;5129228;27;20397;-72
2022/01/24 06:38:23;;;;;;;33.95;18.27;;;;;;;-5.81;69.46;95722.44;5117536;27;20099;-72
2022/01/24 06:40:49;;;;;;;33.50;19.77;;;;;;;-5.75;69.29;95734.25;5106946;27;20549;-72
2022/01/24 06:43:14;;;;;;;31.08;17.80;;;;;;;-5.71;68.40;95739.28;5116412;27;20042;-72
2022/01/24 06:45:40;;;;;;;29.35;17.45;;;;;;;-5.66;67.75;95735.00;5122813;27;20039;-72
2022/01/24 06:48:05;;;;;;;27.20;16.30;;;;;;;-5.57;67.24;95734.16;5130698;27;20449;-72
2022/01/24 06:50:31;;;;;;;25.15;14.50;;;;;;;-5.51;66.46;95740.88;5128575;27;20039;-72
2022/01/24 06:52:56;;;;;;;24.52;12.93;;;;;;;-5.56;66.54;95733.28;5131598;27;20093;-72
2022/01/24 06:55:21;;;;;;;25.77;14.85;;;;;;;-5.51;65.79;95743.41;5110575;28;20046;-72
2022/01/24 06:57:47;;;;;;;26.27;13.80;;;;;;;-5.49;65.15;95745.09;5110619;28;20528;-72
2022/01/24 07:00:13;;;;;;;39.40;18.63;;;;;;;-5.50;65.08;95745.91;5129672;27;20484;-72
2022/01/24 07:02:39;;;;;;;37.55;19.05;;;;;;;-5.39;65.60;95745.84;5123987;27;20035;-72
2022/01/24 07:05:04;;;;;;;29.63;16.90;;;;;;;-5.40;65.00;95737.41;5131194;27;20031;-72
2022/01/24 07:07:30;;;;;;;18.27;10.98;;;;;;;-5.29;64.04;95752.56;5132086;27;20034;-72
2022/01/24 07:09:55;;;;;;;13.73;9.23;;;;;;;-5.34;63.04;95750.91;5127057;27;20031;-72
2022/01/24 07:12:22;;;;;;;24.25;12.65;;;;;;;-5.20;62.61;95766.84;5127161;27;20080;-72
2022/01/24 07:14:48;;;;;;;24.95;13.98;;;;;;;-5.26;63.80;95762.66;5126276;27;20531;-72
2022/01/24 07:19:42;;;;;;;17.85;10.32;;;;;;;-5.20;62.70;95770.22;5109015;27;20043;-72
2022/01/24 07:22:07;;;;;;;20.75;11.20;;;;;;;-5.11;61.64;95765.94;5101944;28;20031;-72
2022/01/24 07:24:33;;;;;;;23.52;11.88;;;;;;;-5.04;60.90;95762.50;5124648;27;20031;-72
2022/01/24 07:26:59;;;;;;;23.65;12.07;;;;;;;-5.04;60.73;95765.91;5111976;27;20031;-72
2022/01/24 07:29:24;;;;;;;19.52;10.27;;;;;;;-5.17;61.04;95771.91;5118765;27;20023;-72
2022/01/24 07:31:50;;;;;;;31.70;13.52;;;;;;;-5.14;60.65;95776.94;5086299;27;20027;-72
2022/01/24 07:34:15;;;;;;;19.35;11.32;;;;;;;-5.10;59.90;95790.41;5124410;27;20027;-72
2022/01/24 07:36:41;;;;;;;23.58;11.73;;;;;;;-5.15;60.74;95782.88;5132839;27;20027;-72
2022/01/24 07:39:07;;;;;;;27.90;13.98;;;;;;;-4.98;60.28;95792.91;5116376;27;20499;-72
2022/01/24 07:41:34;;;;;;;30.88;15.90;;;;;;;-4.94;59.82;95782.69;5139025;27;20437;-72
2022/01/24 07:44:00;;;;;;;28.65;16.40;;;;;;;-4.89;59.75;95785.22;5118235;28;20042;-72
2022/01/24 07:46:25;;;;;;;35.45;16.33;;;;;;;-4.84;58.85;95782.66;5119443;27;20494;-74
2022/01/24 07:48:51;;;;;;;53.80;23.38;;;;;;;-4.80;59.15;95790.22;5126072;27;20023;-73
2022/01/24 07:51:16;;;;;;;28.73;16.30;;;;;;;-4.75;58.23;95797.78;5111209;28;20059;-73
2022/01/24 07:53:42;;;;;;;25.92;14.52;;;;;;;-4.75;58.30;95802.84;5092102;28;20027;-73
2022/01/24 07:56:08;;;;;;;19.70;11.82;;;;;;;-4.75;58.09;95802.84;5115958;28;20031;-73
2022/01/24 07:58:33;;;;;;;40.58;17.17;;;;;;;-4.75;58.39;95807.94;5103224;27;20023;-72
2022/01/24 08:00:59;;;;;;;23.77;13.82;;;;;;;-4.67;57.87;95816.31;5101497;27;20039;-73
2022/01/24 08:03:24;;;;;;;18.70;11.15;;;;;;;-4.73;57.11;95804.53;5122814;28;20019;-72
2022/01/24 08:05:50;;;;;;;17.23;10.05;;;;;;;-4.71;57.12;95814.66;5120093;28;20478;-73
2022/01/24 08:08:15;;;;;;;12.18;7.40;;;;;;;-4.56;55.67;95822.16;5126827;28;20027;-73
2022/01/24 08:10:41;;;;;;;19.90;10.95;;;;;;;-4.70;57.06;95811.28;5120537;28;20027;-72
2022/01/24 08:13:06;;;;;;;25.63;11.48;;;;;;;-4.79;56.94;95822.34;5118274;28;20031;-71
2022/01/24 08:15:32;;;;;;;17.85;9.82;;;;;;;-4.71;56.00;95840.00;5109448;28;20054;-73
2022/01/24 08:17:58;;;;;;;14.80;9.05;;;;;;;-4.68;56.76;95839.13;5111832;28;20040;-73
2022/01/24 08:20:23;;;;;;;18.48;10.10;;;;;;;-4.67;56.64;95835.78;5101505;28;20031;-72
2022/01/24 08:22:49;;;;;;;18.98;10.07;;;;;;;-4.68;56.70;95832.41;5130377;28;20031;-73
2022/01/24 08:25:14;;;;;;;13.10;7.95;;;;;;;-4.67;56.56;95839.13;5125565;28;20062;-73
2022/01/24 08:27:40;;;;;;;13.57;7.80;;;;;;;-4.58;55.71;95844.13;5123608;28;20074;-72
2022/01/24 08:30:11;;;;;;;14.65;9.52;;;;;;;-4.51;56.54;95843.25;5109639;28;20493;-72
2022/01/24 08:32:36;;;;;;;10.65;7.45;;;;;;;-4.38;56.24;95849.03;5093266;28;20047;-72
2022/01/24 08:35:01;;;;;;;13.38;8.18;;;;;;;-4.43;56.27;95843.19;5114513;27;20504;-72
2022/01/24 08:37:27;;;;;;;13.32;7.80;;;;;;;-4.43;56.23;95853.34;5114322;28;20031;-72
2022/01/24 08:39:52;;;;;;;14.85;8.30;;;;;;;-4.31;56.24;95860.84;5096396;28;20035;-72
2022/01/24 08:42:44;;;;;;;13.20;7.35;;;;;;;-4.19;55.87;95853.97;5113444;28;20031;-73
2022/01/24 08:47:49;;;;;;;9.70;5.78;;;;;;;-4.18;55.30;95853.97;5099109;28;20050;-72
2022/01/24 08:50:14;;;;;;;13.68;8.07;;;;;;;-4.08;55.83;95855.56;5112984;28;20043;-73
2022/01/24 08:52:40;;;;;;;20.70;9.85;;;;;;;-4.05;54.84;95859.75;5114368;28;20043;-72
2022/01/24 08:55:05;;;;;;;16.35;9.20;;;;;;;-3.97;54.73;95863.06;5113120;28;20489;-72
2022/01/24 08:57:31;;;;;;;11.63;6.13;;;;;;;-3.88;53.19;95859.59;5113047;28;20016;-72
2022/01/24 08:59:56;;;;;;;13.95;7.90;;;;;;;-3.87;54.46;95866.38;5112867;28;20035;-72
2022/01/24 09:02:22;;;;;;;11.13;7.00;;;;;;;-3.80;53.82;95857.81;5112864;28;20030;-73
2022/01/24 09:04:47;;;;;;;10.70;6.43;;;;;;;-3.75;52.85;95858.63;5112888;28;20036;-73
2022/01/24 09:07:15;;;;;;;10.52;6.32;;;;;;;-3.71;53.60;95862.78;5112724;28;20433;-73
2022/01/24 09:09:40;;;;;;;10.30;5.95;;;;;;;-3.65;52.96;95867.84;5095977;28;20031;-72
2022/01/24 09:12:11;;;;;;;13.05;8.15;;;;;;;-3.58;52.90;95873.69;5114384;27;20016;-72
2022/01/24 09:14:40;;;;;;;10.27;5.80;;;;;;;-3.55;52.37;95871.09;5113015;28;20036;-72
2022/01/24 09:17:05;;;;;;;13.70;7.28;;;;;;;-3.60;52.04;95863.53;5112729;28;20057;-73
2022/01/24 09:19:31;;;;;;;9.18;5.20;;;;;;;-3.43;49.41;95865.03;5112833;28;20023;-72
2022/01/24 09:21:56;;;;;;;8.80;5.57;;;;;;;-3.57;50.08;95870.28;5114160;28;20031;-72
2022/01/24 09:24:22;;;;;;;7.80;5.45;;;;;;;-3.70;50.46;95866.19;5112794;28;20512;-72
2022/01/24 09:26:47;;;;;;;11.18;5.55;;;;;;;-3.74;50.18;95862.00;5113680;28;20035;-72
2022/01/24 09:29:13;;;;;;;9.60;5.43;;;;;;;-3.82;49.08;95865.47;5114090;28;20031;-72
2022/01/24 09:31:38;;;;;;;7.57;4.47;;;;;;;-3.80;49.09;95867.97;5113781;28;20043;-72
2022/01/24 09:34:04;;;;;;;9.25;6.05;;;;;;;-3.73;49.58;95866.22;5112506;28;20500;-73
2022/01/24 09:36:29;;;;;;;13.35;6.90;;;;;;;-3.63;48.58;95865.25;5112382;28;20051;-72
2022/01/24 09:38:56;;;;;;;10.68;6.28;;;;;;;-3.75;49.30;95858.63;5112433;28;20031;-73
2022/01/24 09:41:21;;;;;;;8.80;5.38;;;;;;;-3.76;48.58;95864.56;5095424;28;20023;-72
2022/01/24 09:43:47;;;;;;;8.73;4.78;;;;;;;-3.74;47.48;95867.91;5095162;28;20036;-72
2022/01/24 09:46:12;;;;;;;10.45;5.85;;;;;;;-3.91;48.89;95860.47;5111707;28;20032;-73
2022/01/24 09:48:38;;;;;;;10.05;5.75;;;;;;;-3.96;48.05;95858.81;5112164;28;20028;-73
2022/01/24 09:51:04;;;;;;;9.93;5.93;;;;;;;-4.05;50.01;95849.59;5094899;28;20058;-72
2022/01/24 09:53:30;;;;;;;13.38;8.02;;;;;;;-4.09;50.11;95856.41;5113492;28;20031;-72
2022/01/24 09:55:55;;;;;;;15.30;8.20;;;;;;;-4.10;50.22;95846.25;5095047;28;20035;-72
2022/01/24 09:58:21;;;;;;;12.68;8.63;;;;;;;-4.05;50.19;95852.97;5095070;28;20431;-72
2022/01/24 10:00:46;;;;;;;12.82;8.23;;;;;;;-4.05;49.21;95863.13;5111745;28;20023;-73
2022/01/24 10:03:12;;;;;;;22.10;12.55;;;;;;;-4.05;51.10;95852.97;5111915;28;20413;-72
2022/01/24 10:05:38;;;;;;;34.60;12.27;;;;;;;-3.94;49.95;95849.50;5077843;28;20035;-72
2022/01/24 10:08:05;;;;;;;12.68;8.23;;;;;;;-3.98;49.27;95842.75;5111701;28;20063;-72
2022/01/24 10:10:38;;;;;;;12.43;7.45;;;;;;;-3.96;49.75;95843.59;5112835;28;20111;-73
2022/01/24 10:16:36;;;;;;;14.75;9.35;;;;;;;-3.89;50.45;95832.53;5111818;28;20042;-72
2022/01/24 10:19:09;;;;;;;12.82;7.68;;;;;;;-3.87;49.07;95841.00;5097949;28;20039;-72
2022/01/24 10:21:45;;;;;;;10.07;6.85;;;;;;;-3.97;49.28;95837.69;5111465;28;20027;-72
2022/01/24 10:24:12;;;;;;;13.60;9.25;;;;;;;-3.96;49.62;95851.22;5111629;28;20046;-72
2022/01/24 10:26:38;;;;;;;17.77;9.80;;;;;;;-3.89;49.81;95853.69;5094476;28;20502;-72
2022/01/24 10:29:09;;;;;;;17.25;10.57;;;;;;;-3.83;49.64;95847.69;5077466;28;20089;-72
2022/01/24 10:31:34;;;;;;;;;;;;;;;-3.75;49.42;95853.53;5094979;28;20498;-73
2022/01/24 10:34:22;;;;;;;11.55;6.72;;;;;;;-3.73;48.55;95853.50;5111315;28;19922;-72
2022/01/24 10:36:50;;;;;;;12.02;7.22;;;;;;;-3.97;49.13;95850.38;5111383;28;20513;-72
2022/01/24 10:39:27;;;;;;;10.07;7.53;;;;;;;-3.89;48.58;95857.94;5094561;28;20036;-73
2022/01/24 10:44:50;;;;;;;11.55;7.32;;;;;;;-3.95;48.26;95850.38;5096131;28;20046;-73
2022/01/24 10:47:26;;;;;;;18.35;11.27;;;;;;;-4.13;48.06;95859.81;5076884;28;20028;-73
2022/01/24 10:49:52;;;;;;;12.27;6.80;;;;;;;-4.15;48.45;95861.56;5110701;28;20143;-73
2022/01/24 10:52:22;;;;;;;14.48;9.10;;;;;;;-4.20;48.53;95862.47;5110830;28;20039;-73
2022/01/24 10:54:48;;;;;;;32.40;18.63;;;;;;;-4.22;48.84;95861.63;5093711;28;20075;-73
2022/01/24 10:57:27;;;;;;;18.25;10.93;;;;;;;-4.18;49.91;95869.19;5093305;28;20320;-72
2022/01/24 11:00:07;;;;;;;47.08;26.25;;;;;;;-4.25;50.68;95859.94;5110701;28;20047;-73
2022/01/24 11:02:40;;;;;;;18.80;11.98;;;;;;;-4.23;51.98;95858.25;5110718;28;20054;-72
2022/01/24 11:05:35;;;;;;;42.88;27.65;;;;;;;-4.28;51.99;95839.69;5110680;28;20085;-73
2022/01/24 11:08:03;;;;;;;18.95;12.32;;;;;;;-4.30;51.94;95847.28;5103385;28;20039;-73
2022/01/24 11:10:49;;;;;;;15.10;8.68;;;;;;;-4.33;52.72;95854.09;5093692;28;20039;-72
2022/01/24 11:13:18;;;;;;;12.27;7.45;;;;;;;-4.47;53.31;95845.75;5111801;28;20023;-73
2022/01/24 11:15:48;;;;;;;12.02;6.82;;;;;;;-4.51;54.46;95858.47;5110713;28;20118;-72
2022/01/24 11:18:15;;;;;;;15.43;9.00;;;;;;;-4.53;54.68;95855.09;5094246;28;20511;-72
2022/01/24 11:20:45;;;;;;;13.07;8.50;;;;;;;-4.48;54.25;95857.59;5110371;28;20093;-72
2022/01/24 11:23:10;;;;;;;16.80;9.13;;;;;;;-4.49;55.85;95861.81;5094291;28;20424;-73
2022/01/24 11:25:43;;;;;;;10.75;7.18;;;;;;;-4.49;56.53;95864.34;5093393;28;20032;-73
2022/01/24 11:28:09;;;;;;;11.70;8.18;;;;;;;-4.41;57.27;95878.69;5093425;28;20587;-72
2022/01/24 11:30:44;;;;;;;11.65;8.13;;;;;;;-4.53;57.66;95865.25;5110209;28;20071;-73
2022/01/24 11:33:33;;;;;;;13.43;7.60;;;;;;;-4.54;57.21;95863.56;5094548;28;20486;-73
2022/01/24 11:36:02;;;;;;;9.90;6.70;;;;;;;-4.68;57.40;95860.28;5105501;28;20046;-72
2022/01/24 11:38:32;;;;;;;16.05;8.93;;;;;;;-4.61;58.51;95861.91;5093386;28;20400;-72
2022/01/24 11:41:00;;;;;;;23.85;15.55;;;;;;;-4.47;59.43;95863.50;5110167;28;20466;-73
2022/01/24 11:43:34;;;;;;;31.73;20.88;;;;;;;-4.40;59.05;95877.81;5111258;28;20027;-72
2022/01/24 11:46:06;;;;;;;13.75;8.93;;;;;;;-4.41;59.08;95864.28;5093313;28;20036;-72
2022/01/24 11:48:32;;;;;;;13.00;7.50;;;;;;;-4.41;59.07;95858.38;5094034;28;20481;-72
2022/01/24 11:51:05;;;;;;;13.73;8.38;;;;;;;-4.35;56.79;95868.47;5092935;28;20131;-72
2022/01/24 11:53:32;;;;;;;13.32;8.30;;;;;;;-4.39;56.33;95861.75;5110278;28;20466;-73
2022/01/24 11:56:24;;;;;;;16.58;9.30;;;;;;;-4.30;56.35;95861.69;5109943;28;20108;-73
2022/01/24 11:58:50;;;;;;;31.55;17.65;;;;;;;-4.25;55.31;95859.94;5095440;28;20453;-72
2022/01/24 12:01:36;;;;;;;24.33;14.13;;;;;;;-4.30;54.59;95854.91;5109950;28;20041;-72
2022/01/24 12:04:01;;;;;;;17.17;10.73;;;;;;;-4.27;55.00;95869.25;5111488;28;20024;-73
2022/01/24 12:06:27;;;;;;;12.93;8.13;;;;;;;-4.29;54.79;95865.88;5092824;28;20422;-72
2022/01/24 12:09:06;;;;;;;24.70;12.98;;;;;;;-4.34;54.39;95870.19;5114230;28;20038;-73
2022/01/24 12:11:35;;;;;;;15.77;9.90;;;;;;;-4.34;53.24;95857.50;5097150;28;20051;-73
2022/01/24 12:14:12;;;;;;;12.85;8.05;;;;;;;-4.42;52.59;95877.00;5113902;28;20096;-72
2022/01/24 12:16:40;;;;;;;19.55;10.93;;;;;;;-4.39;52.26;95882.06;5097753;28;20035;-72
2022/01/24 12:19:06;;;;;;;20.60;11.98;;;;;;;-4.48;52.32;95877.91;5113973;28;20058;-72
2022/01/24 12:21:36;;;;;;;17.70;9.88;;;;;;;-4.51;52.06;95872.84;5096808;28;20031;-73
2022/01/24 12:24:04;;;;;;;32.63;17.42;;;;;;;-4.47;51.89;95868.59;5097409;28;20023;-72
2022/01/24 12:26:31;;;;;;;19.98;12.15;;;;;;;-4.40;50.80;95871.06;5096851;28;20028;-72
2022/01/24 12:29:03;;;;;;;15.35;8.50;;;;;;;-4.40;51.43;95855.84;5096867;28;20477;-72
2022/01/24 12:31:33;;;;;;;10.50;6.82;;;;;;;-4.36;51.04;95865.09;5097463;28;20124;-73
2022/01/24 12:34:01;;;;;;;19.45;10.82;;;;;;;-4.31;50.35;95871.00;5113427;28;20099;-72
2022/01/24 12:36:46;;;;;;;14.25;7.80;;;;;;;-4.26;50.85;95878.56;5114823;28;20024;-72
2022/01/24 12:39:21;;;;;;;14.70;8.25;;;;;;;-4.29;50.67;95878.56;5115063;28;20092;-73
2022/01/24 12:41:59;;;;;;;16.30;9.05;;;;;;;-4.35;50.42;95878.63;5114582;28;20027;-73
2022/01/24 12:47:04;;;;;;;32.72;16.33;;;;;;;-4.37;50.80;95893.88;5098223;28;20032;-73
2022/01/24 12:49:29;;;;;;;27.77;14.20;;;;;;;-4.38;51.29;95891.34;5112558;28;20060;-72
2022/01/24 12:51:55;;;;;;;19.60;10.38;;;;;;;-4.31;50.70;95895.53;5088203;28;20102;-72
2022/01/24 12:54:20;;;;;;;45.53;27.73;;;;;;;-4.33;51.03;95894.69;5096380;28;20058;-72
2022/01/24 12:56:46;;;;;;;25.13;13.85;;;;;;;-4.34;49.37;95890.47;5079006;28;20023;-73
2022/01/24 12:59:11;;;;;;;24.80;12.15;;;;;;;-4.41;49.18;95888.81;5114675;28;20034;-72
2022/01/24 13:01:41;;;;;;;33.47;19.65;;;;;;;-4.42;49.38;95882.09;5114565;28;20028;-72
2022/01/24 13:04:12;;;;;;;17.73;10.13;;;;;;;-4.43;49.61;95875.31;5096926;28;20114;-73
2022/01/24 13:06:39;;;;;;;19.85;12.43;;;;;;;-4.35;49.89;95891.31;5079281;28;20531;-72
2022/01/24 13:09:13;;;;;;;21.15;12.05;;;;;;;-4.40;50.16;95867.66;5096230;28;20477;-72